createdAt,value
2022-08-26T00:01:39.149Z,100115.88
2022-08-26T00:06:46.065Z,100117.84
2022-08-26T00:11:49.421Z,100101.94
2022-08-26T00:16:53.732Z,100100.97
2022-08-26T00:21:59.232Z,100084.81
2022-08-26T00:27:02.216Z,100094.53
2022-08-26T00:32:05.078Z,100090.09
2022-08-26T00:37:11.652Z,100088.31
2022-08-26T00:42:17.181Z,100087.41
2022-08-26T00:47:24.391Z,100094.53
2022-08-26T00:52:28.760Z,100082.16
2022-08-26T00:57:32.412Z,100075.00
2022-08-26T01:02:35.305Z,100067.06
2022-08-26T01:07:41.650Z,100067.09
2022-08-26T01:12:47.709Z,100060.94
2022-08-26T01:17:51.269Z,100050.97
2022-08-26T01:23:01.473Z,100049.22
2022-08-26T01:28:08.957Z,100041.38
2022-08-26T01:33:17.081Z,100037.72
2022-08-26T01:38:21.365Z,100033.25
2022-08-26T01:43:28.898Z,100032.47
2022-08-26T01:48:33.540Z,100033.41
2022-08-26T01:53:37.815Z,100021.78
2022-08-26T01:58:46.697Z,100017.44
2022-08-26T02:03:55.396Z,100003.25
2022-08-26T02:09:01.858Z,99998.81
2022-08-26T02:14:10.171Z,99982.78
2022-08-26T02:19:17.126Z,99991.63
2022-08-26T02:24:23.600Z,99979.91
2022-08-26T02:29:33.815Z,99981.69
2022-08-26T02:34:36.388Z,99967.47
2022-08-26T02:39:42.343Z,99981.84
2022-08-26T02:44:45.397Z,99964.03
2022-08-26T02:49:48.244Z,99948.88
2022-08-26T02:54:52.787Z,99936.63
2022-08-26T02:59:55.446Z,99947.72
2022-08-26T03:05:01.737Z,99909.34
2022-08-26T03:10:08.524Z,99896.91
2022-08-26T03:15:16.006Z,99884.34
2022-08-26T03:20:20.068Z,99860.09
2022-08-26T03:25:25.128Z,99849.56
2022-08-26T03:30:45.329Z,99830.75
2022-08-26T03:35:50.568Z,99816.56
2022-08-26T03:40:55.487Z,99796.97
2022-08-26T03:45:58.164Z,99788.94
2022-08-26T03:51:00.948Z,99778.16
2022-08-26T03:56:07.492Z,99769.59
2022-08-26T04:01:10.169Z,99735.66
2022-08-26T04:06:12.888Z,99720.56
2022-08-26T04:11:19.944Z,99715.34
2022-08-26T04:16:22.852Z,99699.38
2022-08-26T04:21:29.279Z,99685.19
2022-08-26T04:26:36.988Z,99656.72
2022-08-26T04:31:42.356Z,99633.56
2022-08-26T04:36:45.313Z,99624.81
2022-08-26T04:41:50.106Z,99589.31
2022-08-26T04:46:53.593Z,99564.47
2022-08-26T04:51:58.181Z,99531.50
2022-08-26T04:57:02.517Z,99530.56
2022-08-26T05:02:06.719Z,99509.97
2022-08-26T05:07:09.488Z,99500.09
2022-08-26T05:12:13.759Z,99495.97
2022-08-26T05:17:16.408Z,99502.09
2022-08-26T05:22:20.095Z,99494.81
2022-08-26T05:27:24.453Z,99504.59
2022-08-26T05:32:27.436Z,99485.88
2022-08-26T05:37:31.856Z,99532.69
2022-08-26T05:42:36.015Z,99543.13
2022-08-26T05:47:38.762Z,99576.25
2022-08-26T05:52:42.689Z,99583.88
2022-08-26T05:57:46.808Z,99571.34
2022-08-26T06:02:51.175Z,99577.69
2022-08-26T06:08:14.000Z,99573.88
2022-08-26T06:13:19.257Z,99578.22
2022-08-26T06:18:25.208Z,99597.75
2022-08-26T06:23:47.031Z,99612.03
2022-08-26T06:28:51.029Z,99609.28
2022-08-26T06:33:55.641Z,99630.84
2022-08-26T06:39:03.286Z,99615.28
2022-08-26T06:44:08.432Z,99629.97
2022-08-26T06:49:12.345Z,99624.34
2022-08-26T06:54:15.065Z,99621.59
2022-08-26T06:59:19.059Z,99628.72
2022-08-26T07:04:24.426Z,99636.66
2022-08-26T07:09:30.262Z,99625.69
2022-08-26T07:14:34.808Z,99652.66
2022-08-26T07:19:37.481Z,99622.81
2022-08-26T07:24:41.959Z,99616.81
2022-08-26T07:29:46.965Z,99609.78
2022-08-26T07:34:49.733Z,99628.13
2022-08-26T07:39:52.724Z,99645.28
2022-08-26T07:44:56.785Z,99653.50
2022-08-26T07:50:00.373Z,99637.75
2022-08-26T07:55:04.538Z,99635.06
2022-08-26T08:00:13.083Z,99656.03
2022-08-26T08:05:19.002Z,99639.09
2022-08-26T08:10:25.216Z,99634.06
2022-08-26T08:15:32.067Z,99630.94
2022-08-26T08:20:35.841Z,99649.19
2022-08-26T08:25:39.254Z,99666.81
2022-08-26T08:30:43.738Z,99676.00
2022-08-26T08:35:46.614Z,99685.44
2022-08-26T08:40:49.500Z,99695.41
2022-08-26T08:45:55.882Z,99699.84
2022-08-26T08:51:07.077Z,99715.22
2022-08-26T08:56:13.681Z,99670.97
2022-08-26T09:01:27.055Z,99678.53
2022-08-26T09:06:30.664Z,99685.00
2022-08-26T09:11:33.866Z,99666.56
2022-08-26T09:16:42.512Z,99705.72
2022-08-26T09:21:45.800Z,99709.50
2022-08-26T09:26:48.919Z,99726.91
2022-08-26T09:32:16.089Z,99771.13
2022-08-26T09:37:35.460Z,99749.88
2022-08-26T09:42:38.404Z,99764.31
2022-08-26T09:47:55.976Z,99777.72
2022-08-26T09:53:09.916Z,99811.72
2022-08-26T09:58:17.525Z,99810.38
2022-08-26T10:03:27.316Z,99798.94
2022-08-26T10:08:37.164Z,99809.13
2022-08-26T10:13:42.301Z,99819.59
2022-08-26T10:18:51.663Z,99848.19
2022-08-26T10:23:57.600Z,99845.06
2022-08-26T10:29:07.566Z,99816.91
2022-08-26T10:34:14.291Z,99854.91
2022-08-26T10:39:22.137Z,99828.47
2022-08-26T10:44:27.782Z,99856.66
2022-08-26T10:49:35.278Z,99868.91
2022-08-26T10:54:42.390Z,99852.41
2022-08-26T10:59:51.742Z,99893.91
2022-08-26T11:04:57.476Z,99884.56
2022-08-26T11:10:02.437Z,99905.13
2022-08-26T11:15:06.763Z,99889.06
2022-08-26T11:20:33.071Z,99905.44
2022-08-26T11:26:13.341Z,99948.81
2022-08-26T11:31:56.026Z,99943.47
2022-08-26T11:37:00.385Z,99972.94
2022-08-26T11:42:05.704Z,99930.28
2022-08-26T11:47:11.772Z,99990.56
2022-08-26T11:52:18.589Z,99950.81
2022-08-26T11:57:24.041Z,99961.19
2022-08-26T12:02:28.541Z,99980.72
2022-08-26T12:07:31.306Z,99984.53
2022-08-26T12:12:38.653Z,99994.31
2022-08-26T12:17:43.567Z,99998.53
2022-08-26T12:22:48.034Z,100034.09
2022-08-26T12:27:53.757Z,100018.66
2022-08-26T12:33:22.328Z,100051.78
2022-08-26T12:38:26.777Z,100059.19
2022-08-26T12:43:41.714Z,100036.47
2022-08-26T12:48:50.044Z,100056.72
2022-08-26T12:53:53.035Z,100058.94
2022-08-26T12:59:11.176Z,100061.38
2022-08-26T13:04:38.896Z,100054.75
2022-08-26T13:09:41.556Z,100043.03
2022-08-26T13:14:45.740Z,100060.41
2022-08-26T13:19:49.767Z,100053.72
2022-08-26T13:24:58.174Z,100034.19
2022-08-26T13:30:01.504Z,100048.00
2022-08-26T13:35:06.538Z,100051.41
2022-08-26T13:40:10.656Z,100058.63
2022-08-26T13:45:13.465Z,100059.00
2022-08-26T13:50:17.494Z,100058.22
2022-08-26T13:55:20.186Z,100052.09
2022-08-26T14:00:23.181Z,100067.66
2022-08-26T14:05:27.772Z,100042.84
2022-08-26T14:10:30.453Z,100049.22
2022-08-26T14:15:34.189Z,100040.44
2022-08-26T14:20:38.523Z,100051.50
2022-08-26T14:25:41.226Z,100039.94
2022-08-26T14:30:45.326Z,100031.97
2022-08-26T14:35:49.814Z,100034.66
2022-08-26T14:40:52.650Z,100020.13
2022-08-26T14:45:55.299Z,100015.13
2022-08-26T14:50:59.273Z,100019.31
2022-08-26T14:56:02.140Z,99998.44
2022-08-26T15:01:04.867Z,99981.56
2022-08-26T15:06:09.650Z,99974.88
2022-08-26T15:11:12.508Z,99996.19
2022-08-26T15:16:15.765Z,99969.28
2022-08-26T15:21:20.464Z,99981.53
2022-08-26T15:26:23.495Z,99968.44
2022-08-26T15:31:30.950Z,99962.00
2022-08-26T15:36:37.688Z,99964.56
2022-08-26T15:41:40.473Z,99969.78
2022-08-26T15:46:43.116Z,99948.03
2022-08-26T15:51:48.099Z,99938.34
2022-08-26T15:56:52.962Z,99927.66
2022-08-26T16:01:56.277Z,99903.94
2022-08-26T16:07:00.337Z,99896.72
2022-08-26T16:12:03.249Z,99899.16
2022-08-26T16:17:05.939Z,99907.81
2022-08-26T16:22:10.064Z,99902.94
2022-08-26T16:27:12.949Z,99918.66
2022-08-26T16:32:17.624Z,99900.06
2022-08-26T16:37:21.615Z,99894.88
2022-08-26T16:42:24.392Z,99880.81
2022-08-26T16:47:27.071Z,99891.03
2022-08-26T16:52:31.436Z,99868.50
2022-08-26T16:57:34.171Z,99854.16
2022-08-26T17:02:36.883Z,99838.97
2022-08-26T17:07:40.880Z,99816.09
2022-08-26T17:12:43.520Z,99819.03
2022-08-26T17:17:46.184Z,99795.91
2022-08-26T17:22:51.510Z,99788.75
2022-08-26T17:27:54.171Z,99778.03
2022-08-26T17:32:57.015Z,99764.84
2022-08-26T17:38:01.694Z,99763.00
2022-08-26T17:43:09.075Z,99762.63
2022-08-26T17:48:14.443Z,99740.94
2022-08-26T17:53:19.306Z,99725.16
2022-08-26T17:58:23.431Z,99718.19
2022-08-26T18:03:26.522Z,99694.88
2022-08-26T18:08:30.519Z,99683.22
2022-08-26T18:13:33.136Z,99664.63
2022-08-26T18:18:36.211Z,99664.84
2022-08-26T18:23:40.290Z,99649.97
2022-08-26T18:28:42.987Z,99634.78
2022-08-26T18:33:48.765Z,99655.56
2022-08-26T18:38:53.377Z,99644.09
2022-08-26T18:43:56.645Z,99641.28
2022-08-26T18:49:00.407Z,99643.16
2022-08-26T18:54:06.137Z,99638.84
2022-08-26T18:59:09.448Z,99609.56
2022-08-26T19:04:15.434Z,99598.88
2022-08-26T19:09:20.143Z,99578.38
2022-08-26T19:14:23.628Z,99565.81
2022-08-26T19:19:26.288Z,99564.22
2022-08-26T19:24:30.333Z,99535.88
2022-08-26T19:29:35.385Z,99505.59
2022-08-26T19:34:40.975Z,99485.94
2022-08-26T19:39:45.016Z,99476.25
2022-08-26T19:45:05.347Z,99445.03
2022-08-26T19:50:11.477Z,99430.09
2022-08-26T19:55:17.581Z,99405.28
2022-08-26T20:00:27.405Z,99387.97
2022-08-26T20:05:31.196Z,99391.94
2022-08-26T20:10:36.364Z,99374.09
2022-08-26T20:15:39.019Z,99353.56
2022-08-26T20:20:58.964Z,99328.22
2022-08-26T20:26:02.917Z,99338.22
2022-08-26T20:31:05.621Z,99327.47
2022-08-26T20:36:09.990Z,99335.63
2022-08-26T20:41:14.332Z,99336.09
2022-08-26T20:46:20.295Z,99334.44
2022-08-26T20:51:26.137Z,99331.47
2022-08-26T20:56:30.231Z,99358.44
2022-08-26T21:01:35.123Z,99358.63
2022-08-26T21:06:38.218Z,99382.09
2022-08-26T21:11:42.537Z,99351.47
2022-08-26T21:16:45.997Z,99347.31
2022-08-26T21:21:50.702Z,99319.72
2022-08-26T21:26:54.765Z,99321.25
2022-08-26T21:31:57.650Z,99336.44
2022-08-26T21:37:00.510Z,99329.50
2022-08-26T21:42:04.770Z,99312.66
2022-08-26T21:47:09.870Z,99293.16
2022-08-26T21:52:13.670Z,99291.19
2022-08-26T21:57:18.228Z,99269.09
2022-08-26T22:02:22.686Z,99269.84
2022-08-26T22:07:25.373Z,99242.03
2022-08-26T22:12:29.372Z,99237.59
2022-08-26T22:17:33.740Z,99255.69
2022-08-26T22:22:36.385Z,99233.53
2022-08-26T22:27:42.812Z,99206.53
2022-08-26T22:32:45.800Z,99193.31
2022-08-26T22:37:48.471Z,99172.03
2022-08-26T22:42:58.721Z,99150.72
2022-08-26T22:48:05.047Z,99122.34
2022-08-26T22:53:07.696Z,99101.97
2022-08-26T22:58:12.945Z,99079.38
2022-08-26T23:03:19.284Z,99081.78
2022-08-26T23:08:22.100Z,99048.94
2022-08-26T23:13:26.088Z,99020.38
2022-08-26T23:18:28.791Z,98995.19
2022-08-26T23:23:31.665Z,98978.25
2022-08-26T23:28:36.379Z,98972.00
2022-08-26T23:33:56.495Z,98961.53
2022-08-26T23:39:01.110Z,98933.16
2022-08-26T23:44:05.789Z,98910.78
2022-08-26T23:49:08.434Z,98898.66
2022-08-26T23:54:13.933Z,98880.72
2022-08-26T23:59:17.932Z,98853.06
